createdAt,value
2023-04-10T00:00:46.036Z,1.70
2023-04-10T00:04:46.613Z,1.70
2023-04-10T00:08:50.143Z,1.70
2023-04-10T00:12:54.085Z,1.60
2023-04-10T00:16:55.218Z,1.60
2023-04-10T00:20:55.773Z,1.50
2023-04-10T00:24:59.138Z,1.50
2023-04-10T00:28:59.561Z,1.50
2023-04-10T00:33:00.273Z,1.40
2023-04-10T00:37:02.284Z,1.40
2023-04-10T00:41:05.956Z,1.30
2023-04-10T00:45:07.113Z,1.30
2023-04-10T00:49:09.869Z,1.30
2023-04-10T00:53:10.262Z,1.20
2023-04-10T00:57:14.083Z,1.20
2023-04-10T01:01:15.599Z,1.00
2023-04-10T01:05:17.049Z,1.00
2023-04-10T01:09:36.774Z,1.00
2023-04-10T01:14:04.367Z,0.90
2023-04-10T01:18:16.037Z,0.90
2023-04-10T01:22:20.684Z,0.80
2023-04-10T01:26:42.759Z,0.80
2023-04-10T01:30:48.168Z,0.80
2023-04-10T01:34:53.172Z,0.80
2023-04-10T01:38:56.815Z,0.70
2023-04-10T01:43:00.641Z,0.70
2023-04-10T01:47:18.489Z,0.60
2023-04-10T01:51:21.327Z,0.60
2023-04-10T01:55:24.247Z,0.50
2023-04-10T01:59:30.357Z,0.50
2023-04-10T02:03:34.596Z,0.50
2023-04-10T02:07:47.785Z,0.40
2023-04-10T02:11:58.352Z,0.40
2023-04-10T02:16:08.514Z,0.40
2023-04-10T02:20:14.151Z,0.40
2023-04-10T02:24:14.987Z,0.40
2023-04-10T02:28:15.663Z,0.30
2023-04-10T02:32:17.760Z,0.30
2023-04-10T02:36:23.044Z,0.30
2023-04-10T02:40:23.806Z,0.20
2023-04-10T02:44:30.989Z,0.20
2023-04-10T02:48:32.396Z,0.10
2023-04-10T02:52:39.166Z,0.10
2023-04-10T02:56:39.696Z,0.10
2023-04-10T03:00:40.387Z,0.00
2023-04-10T03:04:47.242Z,-0.10
2023-04-10T03:08:50.762Z,-0.10
2023-04-10T03:12:51.736Z,-0.10
2023-04-10T03:16:52.595Z,-0.10
2023-04-10T03:20:53.230Z,-0.20
2023-04-10T03:24:57.096Z,-0.20
2023-04-10T03:28:57.465Z,-0.20
2023-04-10T03:32:58.311Z,-0.20
2023-04-10T03:36:58.889Z,-0.20
2023-04-10T03:41:02.513Z,-0.30
2023-04-10T03:45:06.782Z,-0.40
2023-04-10T03:49:07.889Z,-0.40
2023-04-10T03:53:08.975Z,-0.50
2023-04-10T03:57:12.237Z,-0.60
2023-04-10T04:01:13.360Z,-0.50
2023-04-10T04:05:36.196Z,-0.60
2023-04-10T04:10:15.620Z,-0.60
2023-04-10T04:14:40.901Z,-0.60
2023-04-10T04:19:04.590Z,-0.70
2023-04-10T04:23:12.752Z,-0.70
2023-04-10T04:27:17.308Z,-0.70
2023-04-10T04:31:53.993Z,-0.70
2023-04-10T04:36:15.916Z,-0.70
2023-04-10T04:40:31.228Z,-0.60
2023-04-10T04:44:39.240Z,-0.60
2023-04-10T04:48:51.512Z,-0.50
2023-04-10T04:53:10.380Z,-0.50
2023-04-10T04:57:33.896Z,-0.50
2023-04-10T05:01:53.442Z,-0.40
2023-04-10T05:06:10.282Z,-0.30
2023-04-10T05:10:21.809Z,-0.20
2023-04-10T05:14:42.734Z,-0.10
2023-04-10T05:18:59.177Z,-0.10
2023-04-10T05:23:20.964Z,0.00
2023-04-10T05:27:34.680Z,0.00
2023-04-10T05:32:01.252Z,0.00
2023-04-10T05:36:18.479Z,0.10
2023-04-10T05:40:33.897Z,0.30
2023-04-10T05:44:49.184Z,0.50
2023-04-10T05:49:09.817Z,0.70
2023-04-10T05:53:34.814Z,0.90
2023-04-10T05:57:38.512Z,1.10
2023-04-10T06:02:12.360Z,1.20
2023-04-10T06:06:17.096Z,1.20
2023-04-10T06:10:18.379Z,1.30
2023-04-10T06:14:22.994Z,1.50
2023-04-10T06:18:24.163Z,1.60
2023-04-10T06:22:24.710Z,1.80
2023-04-10T06:26:25.688Z,1.90
2023-04-10T06:30:31.129Z,2.20
2023-04-10T06:34:32.330Z,2.50
2023-04-10T06:38:38.198Z,2.70
2023-04-10T06:42:39.529Z,2.80
2023-04-10T06:46:48.670Z,2.80
2023-04-10T06:50:49.416Z,2.90
2023-04-10T06:54:50.086Z,3.10
2023-04-10T06:58:50.828Z,3.10
2023-04-10T07:02:54.232Z,3.10
2023-04-10T07:06:54.766Z,3.30
2023-04-10T07:10:58.646Z,3.50
2023-04-10T07:14:59.635Z,3.70
2023-04-10T07:19:03.242Z,3.90
2023-04-10T07:23:03.924Z,4.20
2023-04-10T07:27:04.572Z,4.50
2023-04-10T07:31:05.064Z,4.80
2023-04-10T07:35:10.143Z,5.10
2023-04-10T07:39:10.630Z,5.50
2023-04-10T07:43:10.997Z,5.90
2023-04-10T07:47:11.826Z,6.20
2023-04-10T07:51:15.251Z,6.60
2023-04-10T07:55:15.821Z,6.90
2023-04-10T07:59:19.315Z,7.30
2023-04-10T08:03:21.976Z,7.70
2023-04-10T08:07:25.933Z,8.20
2023-04-10T08:11:35.227Z,8.80
2023-04-10T08:15:38.403Z,9.50
2023-04-10T08:19:39.005Z,10.00
2023-04-10T08:23:43.114Z,10.30
2023-04-10T08:27:49.867Z,10.60
2023-04-10T08:31:50.470Z,10.80
2023-04-10T08:35:53.586Z,11.00
2023-04-10T08:39:57.462Z,11.10
2023-04-10T08:43:58.381Z,11.60
2023-04-10T08:48:05.836Z,11.80
2023-04-10T08:52:10.708Z,12.10
2023-04-10T08:56:17.585Z,12.50
2023-04-10T09:00:23.463Z,13.20
2023-04-10T09:04:26.896Z,12.80
2023-04-10T09:08:29.653Z,13.10
2023-04-10T09:12:33.021Z,13.40
2023-04-10T09:16:35.276Z,13.80
2023-04-10T09:20:36.913Z,13.70
2023-04-10T09:24:44.605Z,13.90
2023-04-10T09:29:01.110Z,14.20
2023-04-10T09:33:02.980Z,14.70
2023-04-10T09:37:04.992Z,15.10
2023-04-10T09:41:13.040Z,15.60
2023-04-10T09:45:20.239Z,15.90
2023-04-10T09:49:20.842Z,16.40
2023-04-10T09:53:23.958Z,16.60
2023-04-10T09:57:27.008Z,16.40
2023-04-10T10:01:34.809Z,16.50
2023-04-10T10:05:35.818Z,15.80
2023-04-10T10:09:37.808Z,15.80
2023-04-10T10:13:50.475Z,16.20
2023-04-10T10:18:06.842Z,17.00
2023-04-10T10:22:09.620Z,16.90
2023-04-10T10:26:13.350Z,16.30
2023-04-10T10:30:29.469Z,16.60
2023-04-10T10:34:33.960Z,16.90
2023-04-10T10:38:36.439Z,16.90
2023-04-10T10:42:49.044Z,17.30
2023-04-10T10:46:55.787Z,16.70
2023-04-10T10:51:04.567Z,17.20
2023-04-10T10:55:42.517Z,17.20
2023-04-10T10:59:59.251Z,16.90
2023-04-10T11:04:00.341Z,16.60
2023-04-10T11:08:18.601Z,17.30
2023-04-10T11:12:20.458Z,17.10
2023-04-10T11:16:22.004Z,16.60
2023-04-10T11:20:31.010Z,16.40
2023-04-10T11:25:08.847Z,16.20
2023-04-10T11:29:36.482Z,17.00
2023-04-10T11:33:37.656Z,17.00
2023-04-10T11:37:38.902Z,16.70
2023-04-10T11:41:46.035Z,16.10
2023-04-10T11:45:47.907Z,16.40
2023-04-10T11:49:58.929Z,17.00
2023-04-10T11:54:11.650Z,16.70
2023-04-10T11:58:33.184Z,16.40
2023-04-10T12:02:33.861Z,16.20
2023-04-10T12:06:34.357Z,15.90
2023-04-10T12:10:49.222Z,17.10
2023-04-10T12:14:52.699Z,18.90
2023-04-10T12:18:54.201Z,19.10
2023-04-10T12:22:55.617Z,19.90
2023-04-10T12:27:00.378Z,20.40
2023-04-10T12:31:04.388Z,20.00
2023-04-10T12:35:06.738Z,20.40
2023-04-10T12:39:08.574Z,20.70
2023-04-10T12:43:08.957Z,19.80
2023-04-10T12:47:12.150Z,19.70
2023-04-10T12:51:12.879Z,19.80
2023-04-10T12:55:17.815Z,20.60
2023-04-10T12:59:18.840Z,20.80
2023-04-10T13:03:22.297Z,20.60
2023-04-10T13:07:22.898Z,20.50
2023-04-10T13:11:25.064Z,20.50
2023-04-10T13:15:25.830Z,20.30
2023-04-10T13:19:29.004Z,20.00
2023-04-10T13:23:29.526Z,19.40
2023-04-10T13:27:30.171Z,19.00
2023-04-10T13:31:30.735Z,18.70
2023-04-10T13:35:36.271Z,18.30
2023-04-10T13:39:37.689Z,18.50
2023-04-10T13:43:38.136Z,18.70
2023-04-10T13:47:38.988Z,18.60
2023-04-10T13:51:42.203Z,18.10
2023-04-10T13:55:47.012Z,18.20
2023-04-10T13:59:47.856Z,18.50
2023-04-10T14:03:48.565Z,18.80
2023-04-10T14:07:56.995Z,18.50
2023-04-10T14:11:58.107Z,18.00
2023-04-10T14:16:02.908Z,18.30
2023-04-10T14:20:03.511Z,18.60
2023-04-10T14:24:09.158Z,18.30
2023-04-10T14:28:17.574Z,18.10
2023-04-10T14:32:18.418Z,17.80
2023-04-10T14:36:18.958Z,17.80
2023-04-10T14:40:22.195Z,17.70
2023-04-10T14:44:23.919Z,17.60
2023-04-10T14:48:24.498Z,17.60
2023-04-10T14:52:25.269Z,17.50
2023-04-10T14:56:28.407Z,17.60
2023-04-10T15:00:30.027Z,17.70
2023-04-10T15:04:30.723Z,17.70
2023-04-10T15:08:31.350Z,18.00
2023-04-10T15:12:34.365Z,17.80
2023-04-10T15:16:34.748Z,17.80
2023-04-10T15:20:36.975Z,17.90
2023-04-10T15:24:49.382Z,18.30
2023-04-10T15:28:53.855Z,18.00
2023-04-10T15:32:54.625Z,18.00
2023-04-10T15:36:56.394Z,18.00
2023-04-10T15:40:56.848Z,17.90
2023-04-10T15:45:01.380Z,17.80
2023-04-10T15:49:02.241Z,17.30
2023-04-10T15:53:02.875Z,17.00
2023-04-10T15:57:06.773Z,16.40
2023-04-10T16:01:11.815Z,16.10
2023-04-10T16:05:12.859Z,15.80
2023-04-10T16:09:24.723Z,15.60
2023-04-10T16:13:27.006Z,15.50
2023-04-10T16:17:30.085Z,15.30
2023-04-10T16:21:33.186Z,14.80
2023-04-10T16:25:37.181Z,14.60
2023-04-10T16:29:45.532Z,14.40
2023-04-10T16:33:51.281Z,14.40
2023-04-10T16:37:52.330Z,14.30
2023-04-10T16:41:55.259Z,14.30
2023-04-10T16:46:00.293Z,14.20
2023-04-10T16:50:04.258Z,14.00
2023-04-10T16:54:04.827Z,13.60
2023-04-10T16:58:05.770Z,13.50
2023-04-10T17:02:06.251Z,13.30
2023-04-10T17:06:14.720Z,13.10
2023-04-10T17:10:15.804Z,13.00
2023-04-10T17:14:17.581Z,12.90
2023-04-10T17:18:21.874Z,12.80
2023-04-10T17:22:37.993Z,12.70
2023-04-10T17:26:40.375Z,12.70
2023-04-10T17:30:41.591Z,12.50
2023-04-10T17:34:43.049Z,12.40
2023-04-10T17:38:48.920Z,12.20
2023-04-10T17:42:51.054Z,12.10
2023-04-10T17:46:54.710Z,12.00
2023-04-10T17:51:00.430Z,11.90
2023-04-10T17:55:05.910Z,11.80
2023-04-10T17:59:06.380Z,11.60
2023-04-10T18:03:10.467Z,11.50
2023-04-10T18:07:11.346Z,11.40
2023-04-10T18:11:19.485Z,11.30
2023-04-10T18:15:22.188Z,11.30
2023-04-10T18:19:23.065Z,11.20
2023-04-10T18:23:26.238Z,11.10
2023-04-10T18:27:31.816Z,11.10
2023-04-10T18:31:36.865Z,11.00
2023-04-10T18:35:38.230Z,10.90
2023-04-10T18:39:38.669Z,10.90
2023-04-10T18:43:48.676Z,10.80
2023-04-10T18:47:54.587Z,10.70
2023-04-10T18:51:55.170Z,10.50
2023-04-10T18:55:57.137Z,10.40
2023-04-10T19:00:02.065Z,10.40
2023-04-10T19:04:05.353Z,10.30
2023-04-10T19:08:06.752Z,10.20
2023-04-10T19:12:08.920Z,10.10
2023-04-10T19:16:14.972Z,10.00
2023-04-10T19:20:16.189Z,9.90
2023-04-10T19:24:17.782Z,9.90
2023-04-10T19:28:21.414Z,9.80
2023-04-10T19:32:25.511Z,9.80
2023-04-10T19:36:31.509Z,9.80
2023-04-10T19:40:37.297Z,9.70
2023-04-10T19:44:40.673Z,9.70
2023-04-10T19:48:44.831Z,9.60
2023-04-10T19:52:45.975Z,9.60
2023-04-10T19:56:49.645Z,9.50
2023-04-10T20:00:52.519Z,9.40
2023-04-10T20:04:57.529Z,9.40
2023-04-10T20:08:57.977Z,9.30
2023-04-10T20:12:58.644Z,9.20
2023-04-10T20:16:59.206Z,9.20
2023-04-10T20:21:03.207Z,9.10
2023-04-10T20:25:04.040Z,9.10
2023-04-10T20:29:05.918Z,9.00
2023-04-10T20:33:16.565Z,9.00
2023-04-10T20:37:22.148Z,9.00
2023-04-10T20:41:25.265Z,8.90
2023-04-10T20:45:26.558Z,8.90
2023-04-10T20:49:28.036Z,8.90
2023-04-10T20:53:32.036Z,8.90
2023-04-10T20:57:33.216Z,8.90
2023-04-10T21:01:37.543Z,9.00
2023-04-10T21:05:42.113Z,8.90
2023-04-10T21:09:45.938Z,8.80
2023-04-10T21:13:46.628Z,8.80
2023-04-10T21:17:47.614Z,8.70
2023-04-10T21:21:47.992Z,8.70
2023-04-10T21:25:55.569Z,8.70
2023-04-10T21:29:56.202Z,8.70
2023-04-10T21:33:56.799Z,8.70
2023-04-10T21:38:02.281Z,8.70
2023-04-10T21:42:06.021Z,8.80
2023-04-10T21:46:07.062Z,8.70
2023-04-10T21:50:08.636Z,8.70
2023-04-10T21:54:09.472Z,8.60
2023-04-10T21:58:14.989Z,8.60
2023-04-10T22:02:15.870Z,8.50
2023-04-10T22:06:16.372Z,8.50
2023-04-10T22:10:16.966Z,8.50
2023-04-10T22:14:21.383Z,8.40
2023-04-10T22:18:22.298Z,8.40
2023-04-10T22:22:24.663Z,8.40
2023-04-10T22:26:25.345Z,8.40
2023-04-10T22:30:29.921Z,8.40
2023-04-10T22:34:30.699Z,8.40
2023-04-10T22:38:31.271Z,8.40
2023-04-10T22:42:32.237Z,8.40
2023-04-10T22:46:35.353Z,8.40
2023-04-10T22:50:38.188Z,8.30
2023-04-10T22:54:38.813Z,8.30
2023-04-10T22:58:40.247Z,8.30
2023-04-10T23:02:43.533Z,8.30
2023-04-10T23:06:44.173Z,8.30
2023-04-10T23:10:45.018Z,8.30
2023-04-10T23:14:46.006Z,8.30
2023-04-10T23:18:49.506Z,8.30
2023-04-10T23:22:50.346Z,8.30
2023-04-10T23:26:50.654Z,8.30
2023-04-10T23:30:51.106Z,8.40
2023-04-10T23:34:54.456Z,8.30
2023-04-10T23:38:55.092Z,8.30
2023-04-10T23:42:55.828Z,8.30
2023-04-10T23:46:56.532Z,8.30
2023-04-10T23:51:09.597Z,8.20
2023-04-10T23:55:11.616Z,8.20
2023-04-10T23:59:14.526Z,8.20
